Terminal Aerodrome Forecast
Issued by NWS

Home | Current Version | Previous Version | Text Only | Print | Product List | Glossary Off
Versions: 1 2 3 4 5 6 7 8 9 10 11 12 13 14 15 16 17 18 19 20

760
FTUS43 KBIS 082331
TAFDIK
TAF
KDIK 082331Z 0900/0924 30017KT P6SM BKN100
     FM090300 29010KT P6SM SCT150
     FM091900 28017G25KT P6SM SKC=

USA.gov is the U.S. government's official web portal to all federal, state and local government web resources and services.